Time;durP1;ratioP1;P1;durP2;ratioP2;P2;SDS_P1;SDS_P2;PMS_P1;PMS_P2;Temp;Humidity;BMP_temperature;BMP_pressure;BME280_temperature;BME280_humidity;BME280_pressure;Samples;Min_cycle;Max_cycle;Signal;HPM_P1;HPM_P2
2021/07/02 00:00:49;;;;;;;;;43.00;35.75;;;;;;;;6419853;22;8731;-77
2021/07/02 00:03:14;;;;;;;;;44.00;37.25;;;;;;;;6419651;22;8820;-77
2021/07/02 00:05:40;;;;;;;;;42.25;35.50;;;;;;;;6419559;22;8815;-77
2021/07/02 00:08:05;;;;;;;;;42.25;36.25;;;;;;;;6419642;22;8777;-77
2021/07/02 00:10:30;;;;;;;;;41.75;35.75;;;;;;;;6419893;22;8786;-77
2021/07/02 00:12:56;;;;;;;;;38.00;34.50;;;;;;;;6419841;22;8808;-77
2021/07/02 00:15:21;;;;;;;;;38.25;32.75;;;;;;;;6419826;22;8771;-77
2021/07/02 00:17:47;;;;;;;;;41.50;35.75;;;;;;;;6390821;22;8735;-78
2021/07/02 00:20:12;;;;;;;;;40.50;36.50;;;;;;;;6419767;22;9447;-77
2021/07/02 00:22:38;;;;;;;;;46.00;36.50;;;;;;;;6419169;22;8820;-78
2021/07/02 00:25:04;;;;;;;;;42.50;35.50;;;;;;;;6390424;22;9619;-77
2021/07/02 00:27:29;;;;;;;;;38.00;33.50;;;;;;;;6418906;22;9625;-77
2021/07/02 00:29:55;;;;;;;;;39.00;34.00;;;;;;;;6419595;22;8723;-78
2021/07/02 00:32:20;;;;;;;;;44.50;34.75;;;;;;;;6419495;22;8760;-78
2021/07/02 00:34:45;;;;;;;;;45.25;37.25;;;;;;;;6419679;22;8735;-78
2021/07/02 00:37:11;;;;;;;;;40.75;35.25;;;;;;;;6419527;22;8840;-77
2021/07/02 00:39:36;;;;;;;;;44.00;35.25;;;;;;;;6391038;22;8868;-78
2021/07/02 00:42:02;;;;;;;;;44.75;37.00;;;;;;;;6419561;22;8751;-78
2021/07/02 00:44:37;;;;;;;;;45.25;35.75;;;;;;;;6419630;22;8767;-78
2021/07/02 00:47:02;;;;;;;;;44.75;37.25;;;;;;;;6418959;22;8700;-78
2021/07/02 00:49:28;;;;;;;;;46.75;38.50;;;;;;;;6419268;22;8746;-77
2021/07/02 00:51:53;;;;;;;;;49.25;39.75;;;;;;;;6419141;22;9471;-77
2021/07/02 00:54:18;;;;;;;;;49.00;37.50;;;;;;;;6390486;22;8755;-77
2021/07/02 00:56:44;;;;;;;;;46.25;38.25;;;;;;;;6419459;22;8814;-77
2021/07/02 00:59:09;;;;;;;;;45.00;37.50;;;;;;;;6419505;22;8712;-77
2021/07/02 01:01:35;;;;;;;;;45.75;38.50;;;;;;;;6419558;22;8819;-77
2021/07/02 01:04:00;;;;;;;;;49.25;38.75;;;;;;;;6419344;22;8692;-78
2021/07/02 01:06:26;;;;;;;;;49.00;40.25;;;;;;;;6419192;22;8842;-77
2021/07/02 01:08:51;;;;;;;;;48.00;39.50;;;;;;;;6419458;22;8743;-77
2021/07/02 01:11:16;;;;;;;;;52.25;43.25;;;;;;;;6390467;22;8735;-77
2021/07/02 01:13:42;;;;;;;;;50.50;40.75;;;;;;;;6419295;22;9479;-77
2021/07/02 01:16:07;;;;;;;;;46.50;38.50;;;;;;;;6419481;22;8731;-77
2021/07/02 01:18:32;;;;;;;;;47.50;38.75;;;;;;;;6390322;22;8746;-77
2021/07/02 01:20:58;;;;;;;;;46.00;38.50;;;;;;;;6418726;22;8719;-77
2021/07/02 01:23:24;;;;;;;;;49.75;39.00;;;;;;;;6419335;22;8820;-77
2021/07/02 01:25:49;;;;;;;;;49.25;39.50;;;;;;;;6419642;22;8815;-77
2021/07/02 01:28:15;;;;;;;;;50.25;40.75;;;;;;;;6419130;22;8889;-77
2021/07/02 01:30:41;;;;;;;;;44.50;37.25;;;;;;;;6419325;22;9633;-77
2021/07/02 01:33:10;;;;;;;;;49.25;40.75;;;;;;;;6418633;22;8793;-77
2021/07/02 01:35:36;;;;;;;;;48.50;39.75;;;;;;;;6418615;22;8716;-77
2021/07/02 01:38:01;;;;;;;;;45.00;38.00;;;;;;;;6418518;22;8739;-77
2021/07/02 01:40:27;;;;;;;;;49.00;39.00;;;;;;;;6390091;22;8735;-77
2021/07/02 01:42:52;;;;;;;;;46.75;37.75;;;;;;;;6419338;22;8715;-78
2021/07/02 01:45:17;;;;;;;;;46.75;36.75;;;;;;;;6419150;22;8728;-78
2021/07/02 01:47:43;;;;;;;;;46.25;38.00;;;;;;;;6419049;22;8734;-78
2021/07/02 01:50:08;;;;;;;;;47.75;37.50;;;;;;;;6419220;22;8819;-77
2021/07/02 01:52:34;;;;;;;;;47.50;38.00;;;;;;;;6418933;22;8786;-78
2021/07/02 01:55:00;;;;;;;;;47.00;39.50;;;;;;;;6419474;22;8704;-77
2021/07/02 01:57:26;;;;;;;;;45.00;36.50;;;;;;;;6419197;22;8762;-77
2021/07/02 01:59:52;;;;;;;;;45.25;37.75;;;;;;;;6419439;22;8754;-77
2021/07/02 02:02:18;;;;;;;;;48.75;40.00;;;;;;;;6419216;22;8731;-77
2021/07/02 02:04:43;;;;;;;;;46.50;38.25;;;;;;;;6418862;22;8855;-77
2021/07/02 02:07:09;;;;;;;;;47.75;40.50;;;;;;;;6418656;22;8742;-77
2021/07/02 02:09:34;;;;;;;;;50.25;40.75;;;;;;;;6418871;22;8820;-77
2021/07/02 02:11:59;;;;;;;;;51.25;42.00;;;;;;;;6418976;22;8754;-78
2021/07/02 02:14:25;;;;;;;;;55.00;44.00;;;;;;;;6419018;22;8716;-77
2021/07/02 02:16:50;;;;;;;;;58.50;45.25;;;;;;;;6419068;22;9467;-77
2021/07/02 02:19:15;;;;;;;;;57.50;44.00;;;;;;;;6418883;22;8777;-77
2021/07/02 02:21:41;;;;;;;;;59.50;44.75;;;;;;;;6389752;22;8739;-77
2021/07/02 02:24:07;;;;;;;;;52.25;44.00;;;;;;;;6418927;22;8715;-77
2021/07/02 02:26:33;;;;;;;;;54.50;43.75;;;;;;;;6418626;22;8699;-77
2021/07/02 02:28:58;;;;;;;;;55.50;44.00;;;;;;;;6419158;22;8804;-77
2021/07/02 02:31:23;;;;;;;;;57.25;44.25;;;;;;;;6419119;22;8794;-77
2021/07/02 02:33:49;;;;;;;;;56.50;46.00;;;;;;;;6418655;22;8724;-77
2021/07/02 02:36:14;;;;;;;;;57.75;45.50;;;;;;;;6418781;22;9567;-77
2021/07/02 02:38:39;;;;;;;;;52.50;44.00;;;;;;;;6390114;22;8790;-77
2021/07/02 02:41:05;;;;;;;;;58.25;46.00;;;;;;;;6418945;22;8715;-77
2021/07/02 02:43:30;;;;;;;;;60.00;48.00;;;;;;;;6390225;22;8763;-77
2021/07/02 02:45:55;;;;;;;;;57.00;45.50;;;;;;;;6418498;22;8719;-77
2021/07/02 02:48:21;;;;;;;;;58.00;46.75;;;;;;;;6418336;22;8854;-77
2021/07/02 02:50:46;;;;;;;;;55.00;44.50;;;;;;;;6419624;22;8796;-77
2021/07/02 02:53:12;;;;;;;;;56.25;45.50;;;;;;;;6420404;22;8775;-77
2021/07/02 02:55:37;;;;;;;;;59.75;47.00;;;;;;;;6420300;22;8732;-77
2021/07/02 02:58:02;;;;;;;;;59.75;46.75;;;;;;;;6419812;22;8742;-77
2021/07/02 03:00:28;;;;;;;;;60.25;45.50;;;;;;;;6420266;22;8756;-77
2021/07/02 03:02:53;;;;;;;;;57.00;45.25;;;;;;;;6419899;22;8830;-77
2021/07/02 03:05:18;;;;;;;;;58.75;45.75;;;;;;;;6420276;22;8793;-77
2021/07/02 03:07:44;;;;;;;;;56.00;44.25;;;;;;;;6390721;22;8731;-77
2021/07/02 03:10:10;;;;;;;;;65.75;50.50;;;;;;;;6419927;22;8864;-77
2021/07/02 03:12:35;;;;;;;;;61.00;48.00;;;;;;;;6420129;22;8750;-77
2021/07/02 03:15:01;;;;;;;;;58.25;44.75;;;;;;;;6391478;22;8727;-77
2021/07/02 03:17:26;;;;;;;;;57.25;44.50;;;;;;;;6420163;22;8723;-77
2021/07/02 03:19:51;;;;;;;;;57.50;47.75;;;;;;;;6420055;22;9503;-77
2021/07/02 03:22:17;;;;;;;;;57.00;46.00;;;;;;;;6419646;22;8723;-77
2021/07/02 03:24:42;;;;;;;;;56.00;44.00;;;;;;;;6419885;22;8751;-77
2021/07/02 03:27:07;;;;;;;;;54.00;44.25;;;;;;;;6419990;22;8771;-77
2021/07/02 03:29:33;;;;;;;;;55.75;44.50;;;;;;;;6390611;22;8812;-77
2021/07/02 03:31:58;;;;;;;;;58.50;44.75;;;;;;;;6390371;22;8766;-77
2021/07/02 03:34:23;;;;;;;;;53.25;43.25;;;;;;;;6419358;22;9471;-77
2021/07/02 03:36:49;;;;;;;;;57.25;44.75;;;;;;;;6390218;22;8758;-77
2021/07/02 03:39:14;;;;;;;;;52.75;43.75;;;;;;;;6419695;22;8739;-77
2021/07/02 03:41:39;;;;;;;;;57.25;45.00;;;;;;;;6419698;22;8739;-77
2021/07/02 03:44:05;;;;;;;;;53.75;43.00;;;;;;;;6419845;22;8715;-77
2021/07/02 03:46:30;;;;;;;;;51.25;40.25;;;;;;;;6419952;22;8735;-77
2021/07/02 03:48:55;;;;;;;;;51.75;41.75;;;;;;;;6419716;22;8743;-77
2021/07/02 03:51:21;;;;;;;;;55.25;43.00;;;;;;;;6419462;22;8778;-77
2021/07/02 03:53:46;;;;;;;;;50.25;41.25;;;;;;;;6419966;22;8735;-77
2021/07/02 03:56:12;;;;;;;;;53.25;43.75;;;;;;;;6420147;22;8759;-77
2021/07/02 03:58:38;;;;;;;;;52.75;42.50;;;;;;;;6391166;22;8854;-77
2021/07/02 04:01:03;;;;;;;;;50.50;42.00;;;;;;;;6419495;22;8727;-77
2021/07/02 04:03:29;;;;;;;;;54.00;43.00;;;;;;;;6419582;22;8724;-77
2021/07/02 04:05:54;;;;;;;;;50.75;41.50;;;;;;;;6419615;22;8720;-77
2021/07/02 04:08:20;;;;;;;;;51.75;42.25;;;;;;;;6419686;22;8758;-77
2021/07/02 04:10:45;;;;;;;;;49.25;40.00;;;;;;;;6391122;22;8877;-77
2021/07/02 04:13:12;;;;;;;;;49.75;40.25;;;;;;;;6419505;22;8739;-77
2021/07/02 04:15:37;;;;;;;;;50.25;42.50;;;;;;;;6419743;22;8672;-77
2021/07/02 04:18:02;;;;;;;;;48.75;39.50;;;;;;;;6419680;22;8778;-77
2021/07/02 04:20:28;;;;;;;;;51.25;40.75;;;;;;;;6419332;22;8743;-77
2021/07/02 04:22:53;;;;;;;;;51.75;42.25;;;;;;;;6419710;22;8748;-77
2021/07/02 04:25:18;;;;;;;;;49.50;40.75;;;;;;;;6419774;22;8775;-77
2021/07/02 04:27:44;;;;;;;;;49.25;40.00;;;;;;;;6390418;22;8767;-77
2021/07/02 04:30:10;;;;;;;;;50.50;41.75;;;;;;;;6419869;22;8763;-77
2021/07/02 04:32:36;;;;;;;;;52.75;43.25;;;;;;;;6419473;22;8857;-77
2021/07/02 04:35:02;;;;;;;;;50.50;41.50;;;;;;;;6419699;22;8712;-77
2021/07/02 04:37:27;;;;;;;;;55.00;41.50;;;;;;;;6419360;22;8711;-77
2021/07/02 04:39:53;;;;;;;;;51.00;42.00;;;;;;;;6419768;22;8731;-77
2021/07/02 04:42:18;;;;;;;;;49.75;41.50;;;;;;;;6419638;22;8912;-77
2021/07/02 04:44:43;;;;;;;;;50.25;42.00;;;;;;;;6419715;22;8805;-77
2021/07/02 04:47:09;;;;;;;;;52.25;42.25;;;;;;;;6419707;22;8739;-77
2021/07/02 04:49:34;;;;;;;;;49.50;39.00;;;;;;;;6418818;22;8823;-77
2021/07/02 04:51:59;;;;;;;;;46.50;38.00;;;;;;;;6419031;22;8789;-77
2021/07/02 04:54:25;;;;;;;;;52.00;41.00;;;;;;;;6419776;22;8732;-77
2021/07/02 04:56:51;;;;;;;;;47.75;39.00;;;;;;;;6419425;22;8804;-77
2021/07/02 04:59:17;;;;;;;;;46.25;38.50;;;;;;;;6390489;22;8719;-77
2021/07/02 05:01:43;;;;;;;;;49.00;40.25;;;;;;;;6419619;22;8739;-77
2021/07/02 05:04:08;;;;;;;;;45.50;37.25;;;;;;;;6419442;22;8739;-77
2021/07/02 05:06:34;;;;;;;;;45.00;37.50;;;;;;;;6419163;22;8739;-77
2021/07/02 05:08:59;;;;;;;;;48.25;39.75;;;;;;;;6419301;22;8731;-77
2021/07/02 05:11:25;;;;;;;;;50.50;41.00;;;;;;;;6419421;22;8773;-77
2021/07/02 05:13:51;;;;;;;;;46.00;37.00;;;;;;;;6419785;22;8727;-77
2021/07/02 05:16:16;;;;;;;;;46.75;40.00;;;;;;;;6419568;22;8758;-77
2021/07/02 05:18:41;;;;;;;;;48.50;38.25;;;;;;;;6390591;22;8771;-77
2021/07/02 05:21:06;;;;;;;;;46.00;37.25;;;;;;;;6390289;22;8859;-77
2021/07/02 05:23:32;;;;;;;;;47.25;38.50;;;;;;;;6419823;22;8751;-76
2021/07/02 05:25:57;;;;;;;;;44.75;37.75;;;;;;;;6390739;22;9214;-76
2021/07/02 05:28:23;;;;;;;;;43.75;35.50;;;;;;;;6419385;22;8767;-76
2021/07/02 05:30:48;;;;;;;;;45.25;36.00;;;;;;;;6419503;22;8747;-77
2021/07/02 05:33:13;;;;;;;;;46.75;39.25;;;;;;;;6418562;22;8751;-77
2021/07/02 05:35:38;;;;;;;;;44.75;36.75;;;;;;;;6418622;22;8812;-77
2021/07/02 05:38:04;;;;;;;;;43.00;32.75;;;;;;;;6419448;22;9499;-76
2021/07/02 05:40:29;;;;;;;;;48.25;39.75;;;;;;;;6419352;22;9573;-77
2021/07/02 05:42:56;;;;;;;;;48.50;40.75;;;;;;;;6419006;22;8747;-76
2021/07/02 05:45:21;;;;;;;;;44.50;35.75;;;;;;;;6419220;22;8775;-76
2021/07/02 05:47:51;;;;;;;;;46.50;39.50;;;;;;;;6418769;22;8732;-77
2021/07/02 05:50:17;;;;;;;;;52.00;40.00;;;;;;;;6419155;22;8766;-77
2021/07/02 05:52:43;;;;;;;;;45.50;37.50;;;;;;;;6418912;22;8788;-77
2021/07/02 05:55:08;;;;;;;;;45.50;37.75;;;;;;;;6419315;22;8723;-77
2021/07/02 05:57:34;;;;;;;;;43.50;36.75;;;;;;;;6419225;22;8840;-77
2021/07/02 05:59:59;;;;;;;;;44.25;37.50;;;;;;;;6419400;22;8826;-77
2021/07/02 06:02:24;;;;;;;;;42.75;36.00;;;;;;;;6419378;22;8767;-77
2021/07/02 06:04:50;;;;;;;;;47.00;38.25;;;;;;;;6419049;22;8793;-77
2021/07/02 06:07:15;;;;;;;;;49.25;39.00;;;;;;;;6418987;22;8793;-77
2021/07/02 06:09:40;;;;;;;;;43.50;37.00;;;;;;;;6389796;22;9520;-77
2021/07/02 06:12:06;;;;;;;;;47.75;38.75;;;;;;;;6418996;22;8770;-77
2021/07/02 06:14:31;;;;;;;;;47.25;37.50;;;;;;;;6418915;22;8775;-78
2021/07/02 06:16:57;;;;;;;;;42.25;36.25;;;;;;;;6419089;22;9550;-78
2021/07/02 06:19:22;;;;;;;;;40.00;35.50;;;;;;;;6418918;22;8722;-78
2021/07/02 06:21:48;;;;;;;;;45.25;38.50;;;;;;;;6418538;22;8735;-78
2021/07/02 06:24:13;;;;;;;;;47.00;38.00;;;;;;;;6418319;22;8743;-78
2021/07/02 06:26:38;;;;;;;;;43.25;37.25;;;;;;;;6418735;22;8759;-78
2021/07/02 06:29:04;;;;;;;;;43.25;36.00;;;;;;;;6418665;22;8735;-78
2021/07/02 06:31:29;;;;;;;;;42.75;36.00;;;;;;;;6418445;22;8746;-78
2021/07/02 06:33:54;;;;;;;;;46.25;36.75;;;;;;;;6417811;22;8742;-79
2021/07/02 06:36:20;;;;;;;;;42.00;36.50;;;;;;;;6418474;22;8806;-79
2021/07/02 06:38:45;;;;;;;;;47.50;38.00;;;;;;;;6389831;22;8743;-79
2021/07/02 06:41:10;;;;;;;;;46.25;38.00;;;;;;;;6419012;22;8749;-79
2021/07/02 06:43:36;;;;;;;;;50.75;40.75;;;;;;;;6418902;22;9459;-79
2021/07/02 06:46:01;;;;;;;;;50.50;38.75;;;;;;;;6418711;22;9487;-79
2021/07/02 06:48:27;;;;;;;;;51.00;42.00;;;;;;;;6418507;22;8720;-79
2021/07/02 06:50:55;;;;;;;;;46.25;37.25;;;;;;;;6418241;22;8818;-79
2021/07/02 06:53:21;;;;;;;;;43.75;36.50;;;;;;;;6389990;22;8754;-79
2021/07/02 06:55:46;;;;;;;;;49.50;39.50;;;;;;;;6389828;22;8743;-79
2021/07/02 06:58:12;;;;;;;;;47.00;39.25;;;;;;;;6418798;22;8751;-79
2021/07/02 07:00:40;;;;;;;;;48.25;38.25;;;;;;;;6418809;22;8711;-79
2021/07/02 07:03:07;;;;;;;;;48.25;41.75;;;;;;;;6418604;22;9667;-79
2021/07/02 07:05:33;;;;;;;;;56.50;43.50;;;;;;;;6418391;22;8835;-80
2021/07/02 07:07:58;;;;;;;;;47.25;40.00;;;;;;;;6418598;22;8708;-79
2021/07/02 07:10:23;;;;;;;;;54.00;43.25;;;;;;;;6418317;22;8732;-79
2021/07/02 07:12:49;;;;;;;;;50.75;42.25;;;;;;;;6418560;22;8767;-79
2021/07/02 07:15:15;;;;;;;;;48.75;39.75;;;;;;;;6418462;22;8846;-80
2021/07/02 07:17:40;;;;;;;;;47.50;39.25;;;;;;;;6418291;22;8707;-79
2021/07/02 07:20:06;;;;;;;;;45.00;39.25;;;;;;;;6418475;22;8743;-79
2021/07/02 07:22:32;;;;;;;;;49.75;40.00;;;;;;;;6417978;22;8833;-79
2021/07/02 07:24:57;;;;;;;;;50.75;42.75;;;;;;;;6418369;22;8699;-79
2021/07/02 07:27:22;;;;;;;;;47.75;38.75;;;;;;;;6418450;22;8782;-79
2021/07/02 07:29:48;;;;;;;;;50.75;40.25;;;;;;;;6418317;22;8723;-79
2021/07/02 07:32:13;;;;;;;;;50.50;40.00;;;;;;;;6418181;22;8755;-79
2021/07/02 07:34:54;;;;;;;;;45.75;38.25;;;;;;;;6417824;22;9532;-79
2021/07/02 07:37:21;;;;;;;;;52.75;43.50;;;;;;;;6419110;22;8738;-79
2021/07/02 07:39:47;;;;;;;;;54.25;41.00;;;;;;;;6419965;22;8758;-79
2021/07/02 07:42:12;;;;;;;;;46.00;37.25;;;;;;;;6419783;22;8712;-79
2021/07/02 07:44:38;;;;;;;;;51.00;41.75;;;;;;;;6419925;22;8727;-79
2021/07/02 07:47:03;;;;;;;;;48.75;40.50;;;;;;;;6391112;22;8787;-79
2021/07/02 07:49:29;;;;;;;;;44.00;37.75;;;;;;;;6420053;22;8753;-79
2021/07/02 07:54:20;;;;;;;;;41.75;37.75;;;;;;;;6419516;22;8723;-78
2021/07/02 07:56:51;;;;;;;;;43.75;36.25;;;;;;;;6418951;22;8808;-78
2021/07/02 07:59:20;;;;;;;;;43.50;36.25;;;;;;;;6419612;22;8700;-78
2021/07/02 08:01:46;;;;;;;;;38.25;32.25;;;;;;;;6419594;22;8707;-78
2021/07/02 08:04:14;;;;;;;;;38.75;33.75;;;;;;;;6419705;22;8792;-79
2021/07/02 08:06:39;;;;;;;;;33.00;31.75;;;;;;;;6419391;22;8679;-79
2021/07/02 08:09:05;;;;;;;;;35.75;31.25;;;;;;;;6419795;22;8802;-79
2021/07/02 08:11:30;;;;;;;;;33.75;30.50;;;;;;;;6419733;22;8771;-78
2021/07/02 08:13:55;;;;;;;;;31.75;28.25;;;;;;;;6419674;22;8825;-78
2021/07/02 08:16:20;;;;;;;;;46.00;37.00;;;;;;;;6419693;22;8735;-79
2021/07/02 08:18:46;;;;;;;;;37.50;32.75;;;;;;;;6419320;22;8716;-79
2021/07/02 08:21:11;;;;;;;;;32.50;31.00;;;;;;;;6419229;22;8728;-79
2021/07/02 08:23:37;;;;;;;;;42.00;36.25;;;;;;;;6419332;22;8724;-79
2021/07/02 08:26:02;;;;;;;;;47.00;35.25;;;;;;;;6419390;22;8877;-78
2021/07/02 08:31:11;;;;;;;;;41.25;37.00;;;;;;;;6419408;22;8732;-79
2021/07/02 08:33:37;;;;;;;;;36.00;33.50;;;;;;;;6419548;22;8813;-79
2021/07/02 08:36:02;;;;;;;;;41.75;34.50;;;;;;;;6418407;22;8751;-79
2021/07/02 08:38:27;;;;;;;;;41.00;35.00;;;;;;;;6390701;22;8783;-79
2021/07/02 08:40:53;;;;;;;;;36.50;32.50;;;;;;;;6419698;22;8743;-79
2021/07/02 08:43:18;;;;;;;;;34.00;30.25;;;;;;;;6419454;22;8736;-79
2021/07/02 08:45:44;;;;;;;;;34.50;29.75;;;;;;;;6419468;22;8747;-79
2021/07/02 08:48:10;;;;;;;;;39.00;33.25;;;;;;;;6419064;22;8774;-79
2021/07/02 08:50:37;;;;;;;;;37.50;31.75;;;;;;;;6419271;22;9463;-78
2021/07/02 08:53:08;;;;;;;;;30.00;29.25;;;;;;;;6419878;22;8843;-79
2021/07/02 08:55:33;;;;;;;;;32.00;29.50;;;;;;;;6419206;22;8731;-78
2021/07/02 08:57:58;;;;;;;;;35.75;32.00;;;;;;;;6419687;22;8827;-78
2021/07/02 09:00:24;;;;;;;;;39.25;33.00;;;;;;;;6419404;22;8932;-77
2021/07/02 09:02:49;;;;;;;;;37.50;33.00;;;;;;;;6419595;22;8770;-77
2021/07/02 09:05:35;;;;;;;;;35.50;31.25;;;;;;;;6419383;22;8723;-77
2021/07/02 09:08:01;;;;;;;;;39.75;34.00;;;;;;;;6419594;22;8668;-77
2021/07/02 09:10:31;;;;;;;;;24.25;23.75;;;;;;;;6419574;22;8715;-77
2021/07/02 09:12:56;;;;;;;;;25.25;22.25;;;;;;;;6390701;22;8766;-77
2021/07/02 09:15:22;;;;;;;;;28.25;25.00;;;;;;;;6419718;22;8740;-77
2021/07/02 09:17:50;;;;;;;;;26.75;23.25;;;;;;;;6419410;22;8739;-77
2021/07/02 09:20:19;;;;;;;;;27.75;26.75;;;;;;;;6419123;22;8692;-77
2021/07/02 09:22:49;;;;;;;;;26.25;23.75;;;;;;;;6419096;22;8750;-77
2021/07/02 09:25:34;;;;;;;;;29.00;24.25;;;;;;;;6390461;22;8715;-77
2021/07/02 09:28:11;;;;;;;;;25.75;21.75;;;;;;;;6418989;22;9582;-77
2021/07/02 09:30:41;;;;;;;;;22.50;20.50;;;;;;;;6419206;22;8664;-77
2021/07/02 09:33:11;;;;;;;;;26.75;24.50;;;;;;;;6419474;22;8727;-77
2021/07/02 09:38:38;;;;;;;;;22.50;22.00;;;;;;;;6412746;22;8744;-77
2021/07/02 09:41:04;;;;;;;;;24.75;23.00;;;;;;;;6419685;22;8703;-77
2021/07/02 09:43:30;;;;;;;;;23.50;22.00;;;;;;;;6419540;22;8731;-77
2021/07/02 09:45:56;;;;;;;;;26.25;20.75;;;;;;;;6419467;22;9642;-77
2021/07/02 09:48:23;;;;;;;;;29.50;26.25;;;;;;;;6419193;22;8751;-77
2021/07/02 09:50:50;;;;;;;;;28.00;24.00;;;;;;;;6390310;22;8754;-77
2021/07/02 09:53:17;;;;;;;;;27.50;26.25;;;;;;;;6419089;22;8747;-77
2021/07/02 09:55:43;;;;;;;;;23.00;21.75;;;;;;;;6390436;22;8739;-76
2021/07/02 09:58:11;;;;;;;;;26.50;22.25;;;;;;;;6418943;22;8660;-76
2021/07/02 10:00:41;;;;;;;;;22.75;22.75;;;;;;;;6418816;22;8711;-76
2021/07/02 10:03:07;;;;;;;;;21.50;19.50;;;;;;;;6419016;22;8715;-75
2021/07/02 10:05:43;;;;;;;;;19.50;19.00;;;;;;;;6419100;22;8762;-76
2021/07/02 10:08:08;;;;;;;;;23.75;22.25;;;;;;;;6419481;22;8802;-77
2021/07/02 10:10:34;;;;;;;;;23.75;21.50;;;;;;;;6390349;22;8735;-77
2021/07/02 10:12:59;;;;;;;;;22.00;18.75;;;;;;;;6418937;22;8767;-77
2021/07/02 10:15:26;;;;;;;;;28.25;22.50;;;;;;;;6390148;22;8736;-77
2021/07/02 10:17:54;;;;;;;;;20.50;17.00;;;;;;;;6418420;22;8692;-77
2021/07/02 10:20:20;;;;;;;;;22.50;21.50;;;;;;;;6418790;22;8683;-77
2021/07/02 10:22:46;;;;;;;;;25.50;20.50;;;;;;;;6418711;22;8727;-77
2021/07/02 10:25:13;;;;;;;;;22.25;19.25;;;;;;;;6419345;22;8720;-77
2021/07/02 10:27:39;;;;;;;;;21.25;18.75;;;;;;;;6390160;22;8743;-77
2021/07/02 10:30:06;;;;;;;;;21.25;19.75;;;;;;;;6419272;22;8802;-77
2021/07/02 10:32:33;;;;;;;;;18.75;18.00;;;;;;;;6418778;22;8727;-76
2021/07/02 10:34:59;;;;;;;;;21.75;20.50;;;;;;;;6418634;22;8762;-76
2021/07/02 10:37:25;;;;;;;;;19.00;18.00;;;;;;;;6419014;22;8691;-76
2021/07/02 10:39:50;;;;;;;;;20.50;17.50;;;;;;;;6419124;22;8762;-76
2021/07/02 10:42:15;;;;;;;;;18.75;18.75;;;;;;;;6418953;22;9519;-76
2021/07/02 10:44:53;;;;;;;;;23.00;19.25;;;;;;;;6419169;22;8742;-76
2021/07/02 10:47:18;;;;;;;;;20.00;19.50;;;;;;;;6418358;22;8696;-76
2021/07/02 10:49:44;;;;;;;;;21.00;18.00;;;;;;;;6418844;22;8792;-76
2021/07/02 10:52:23;;;;;;;;;19.75;16.50;;;;;;;;6389505;22;8763;-77
2021/07/02 10:54:49;;;;;;;;;18.50;15.50;;;;;;;;6418800;22;8707;-77
2021/07/02 10:57:17;;;;;;;;;18.25;18.25;;;;;;;;6418938;22;8833;-76
2021/07/02 10:59:44;;;;;;;;;21.75;17.50;;;;;;;;6390042;22;8725;-77
2021/07/02 11:02:11;;;;;;;;;20.00;19.25;;;;;;;;6389784;22;9616;-76
2021/07/02 11:04:38;;;;;;;;;15.50;15.00;;;;;;;;6418536;22;8708;-76
2021/07/02 11:07:12;;;;;;;;;18.00;16.50;;;;;;;;6418252;22;9710;-76
2021/07/02 11:09:44;;;;;;;;;19.50;16.50;;;;;;;;6418760;22;9629;-77
2021/07/02 11:12:11;;;;;;;;;18.00;16.50;;;;;;;;6420009;22;8755;-77
2021/07/02 11:15:17;;;;;;;;;15.50;15.25;;;;;;;;6419988;22;8745;-77
2021/07/02 11:17:46;;;;;;;;;18.75;16.50;;;;;;;;6414080;22;9578;-76
2021/07/02 11:20:14;;;;;;;;;22.75;19.25;;;;;;;;6419456;22;8733;-76
2021/07/02 11:22:53;;;;;;;;;17.50;17.00;;;;;;;;6419797;22;8731;-76
2021/07/02 11:25:32;;;;;;;;;19.75;18.25;;;;;;;;6419865;22;8795;-76
2021/07/02 11:28:02;;;;;;;;;16.75;15.50;;;;;;;;6418702;22;8720;-76
2021/07/02 11:30:34;;;;;;;;;15.25;15.25;;;;;;;;6419498;22;8703;-76
2021/07/02 11:33:02;;;;;;;;;18.25;15.75;;;;;;;;6419526;22;8755;-76
2021/07/02 11:35:37;;;;;;;;;13.50;13.00;;;;;;;;6418965;22;8723;-76
2021/07/02 11:38:07;;;;;;;;;17.50;15.50;;;;;;;;6419944;22;8723;-76
2021/07/02 11:40:37;;;;;;;;;20.50;18.00;;;;;;;;6419671;22;8708;-76
2021/07/02 11:43:03;;;;;;;;;18.75;17.50;;;;;;;;6420194;22;8746;-76
2021/07/02 11:45:48;;;;;;;;;19.75;17.50;;;;;;;;6419847;22;8743;-76
2021/07/02 11:48:19;;;;;;;;;16.50;15.25;;;;;;;;6419855;22;8740;-76
2021/07/02 11:50:46;;;;;;;;;15.50;14.25;;;;;;;;6419775;22;9603;-76
2021/07/02 11:53:29;;;;;;;;;18.75;16.00;;;;;;;;6419911;22;8750;-76
2021/07/02 11:56:07;;;;;;;;;18.50;17.25;;;;;;;;6419838;22;8712;-77
2021/07/02 11:58:43;;;;;;;;;16.75;16.75;;;;;;;;6419883;22;8773;-76
2021/07/02 12:01:09;;;;;;;;;18.25;17.50;;;;;;;;6419931;22;8715;-77
2021/07/02 12:03:42;;;;;;;;;15.75;15.75;;;;;;;;6419983;22;8708;-77
2021/07/02 12:06:08;;;;;;;;;18.75;16.75;;;;;;;;6390726;22;8738;-77
2021/07/02 12:08:34;;;;;;;;;14.75;14.75;;;;;;;;6419867;22;8727;-77
2021/07/02 12:11:04;;;;;;;;;21.25;19.25;;;;;;;;6419674;22;8703;-77
2021/07/02 12:13:32;;;;;;;;;15.50;15.50;;;;;;;;6419958;22;8740;-77
2021/07/02 12:16:08;;;;;;;;;18.00;16.75;;;;;;;;6419622;22;8727;-76
2021/07/02 12:18:35;;;;;;;;;17.00;15.00;;;;;;;;6419701;22;8818;-76
2021/07/02 12:21:04;;;;;;;;;16.50;16.00;;;;;;;;6419411;22;8711;-77
2021/07/02 12:23:30;;;;;;;;;15.50;14.00;;;;;;;;6419337;22;8711;-77
2021/07/02 12:26:15;;;;;;;;;15.75;14.25;;;;;;;;6419899;22;8679;-77
2021/07/02 12:28:51;;;;;;;;;18.25;16.25;;;;;;;;6418042;22;8727;-77
2021/07/02 12:31:19;;;;;;;;;15.75;14.50;;;;;;;;6420096;22;8696;-77
2021/07/02 12:33:45;;;;;;;;;13.50;13.00;;;;;;;;6419504;22;8731;-77
2021/07/02 12:36:10;;;;;;;;;17.25;15.25;;;;;;;;6419574;22;8727;-76
2021/07/02 12:38:55;;;;;;;;;16.00;13.50;;;;;;;;6419525;22;8727;-76
2021/07/02 12:41:21;;;;;;;;;15.00;15.00;;;;;;;;6419786;22;8703;-77
2021/07/02 12:43:46;;;;;;;;;13.75;13.75;;;;;;;;6419780;22;9495;-76
2021/07/02 12:46:11;;;;;;;;;13.50;13.50;;;;;;;;6419618;22;8720;-76
2021/07/02 12:48:37;;;;;;;;;15.00;15.00;;;;;;;;6419579;22;8860;-76
2021/07/02 12:51:02;;;;;;;;;14.75;13.50;;;;;;;;6419718;22;8755;-76
2021/07/02 12:56:11;;;;;;;;;16.00;14.25;;;;;;;;6419667;22;8672;-76
2021/07/02 12:58:37;;;;;;;;;12.50;12.50;;;;;;;;6419566;22;8806;-76
2021/07/02 13:01:06;;;;;;;;;14.50;13.00;;;;;;;;6419704;22;8840;-76
2021/07/02 13:03:31;;;;;;;;;16.50;13.75;;;;;;;;6390849;22;8735;-76
2021/07/02 13:06:10;;;;;;;;;12.00;11.00;;;;;;;;6390333;22;8723;-76
2021/07/02 13:08:38;;;;;;;;;13.25;13.00;;;;;;;;6419475;22;9590;-76
2021/07/02 13:11:16;;;;;;;;;11.50;11.00;;;;;;;;6419158;22;8716;-76
2021/07/02 13:13:41;;;;;;;;;12.75;12.50;;;;;;;;6419651;22;9637;-76
2021/07/02 13:16:07;;;;;;;;;14.25;11.75;;;;;;;;6419463;22;8712;-76
2021/07/02 13:18:33;;;;;;;;;12.25;11.25;;;;;;;;6419375;22;8854;-76
2021/07/02 13:21:00;;;;;;;;;13.25;10.50;;;;;;;;6419058;22;8723;-76
2021/07/02 13:23:27;;;;;;;;;13.25;11.50;;;;;;;;6419368;22;8751;-77
2021/07/02 13:26:03;;;;;;;;;12.50;11.00;;;;;;;;6419181;22;8645;-77
2021/07/02 13:28:29;;;;;;;;;17.25;13.00;;;;;;;;6389499;22;8783;-77
2021/07/02 13:30:54;;;;;;;;;11.50;11.50;;;;;;;;6419380;22;8711;-77
2021/07/02 13:33:21;;;;;;;;;12.25;11.75;;;;;;;;6419217;22;8751;-77
2021/07/02 13:35:46;;;;;;;;;11.25;11.00;;;;;;;;6418963;22;8715;-77
2021/07/02 13:38:16;;;;;;;;;14.00;13.00;;;;;;;;6419410;22;8735;-77
2021/07/02 13:40:46;;;;;;;;;13.25;12.75;;;;;;;;6390450;22;8745;-77
2021/07/02 13:43:19;;;;;;;;;13.50;12.75;;;;;;;;6419524;22;8746;-77
2021/07/02 13:46:02;;;;;;;;;14.50;12.75;;;;;;;;6419293;22;8707;-77
2021/07/02 13:48:27;;;;;;;;;14.50;14.00;;;;;;;;6419206;22;8708;-77
2021/07/02 13:50:53;;;;;;;;;10.75;10.00;;;;;;;;6419114;22;8811;-77
2021/07/02 13:53:20;;;;;;;;;10.75;10.75;;;;;;;;6419531;22;8751;-77
2021/07/02 13:55:46;;;;;;;;;11.00;11.00;;;;;;;;6419316;22;8716;-77
2021/07/02 13:58:12;;;;;;;;;14.50;12.00;;;;;;;;6419392;22;8699;-77
2021/07/02 14:00:41;;;;;;;;;11.00;10.25;;;;;;;;6419353;22;8859;-77
2021/07/02 14:03:06;;;;;;;;;12.50;12.50;;;;;;;;6419174;22;8703;-77
2021/07/02 14:05:32;;;;;;;;;13.00;12.00;;;;;;;;6419020;22;8805;-77
2021/07/02 14:07:58;;;;;;;;;12.00;11.75;;;;;;;;6419270;22;8696;-77
2021/07/02 14:10:23;;;;;;;;;12.00;12.00;;;;;;;;6419078;22;8700;-76
2021/07/02 14:12:49;;;;;;;;;15.75;12.75;;;;;;;;6390225;22;8853;-77
2021/07/02 14:15:14;;;;;;;;;14.25;13.25;;;;;;;;6419155;22;8732;-77
2021/07/02 14:17:39;;;;;;;;;12.75;11.00;;;;;;;;6419108;22;8724;-78
2021/07/02 14:20:05;;;;;;;;;12.25;12.25;;;;;;;;6418753;22;8761;-78
2021/07/02 14:22:30;;;;;;;;;11.00;10.25;;;;;;;;6418998;22;8727;-78
2021/07/02 14:24:56;;;;;;;;;10.25;9.75;;;;;;;;6389845;22;8746;-78
2021/07/02 14:27:21;;;;;;;;;12.50;11.25;;;;;;;;6389492;22;8806;-78
2021/07/02 14:29:48;;;;;;;;;14.00;12.50;;;;;;;;6419227;22;8739;-78
2021/07/02 14:32:13;;;;;;;;;12.75;11.00;;;;;;;;6419101;22;8727;-78
2021/07/02 14:34:38;;;;;;;;;12.00;11.00;;;;;;;;6418877;22;8750;-78
2021/07/02 14:37:04;;;;;;;;;12.25;12.00;;;;;;;;6418606;22;9470;-79
2021/07/02 14:39:29;;;;;;;;;13.75;12.75;;;;;;;;6419145;22;8731;-78